METAR Data
IDs: Format: Raw Decoded Include TAF

Data at: 0748 UTC 18 Sep 2021

PASO 180653Z AUTO 00000KT 10SM SCT060 OVC075 07/06 A2949 RMK AO2 SLP986 T00720061 TSNO